createdAt,value
2023-11-10T00:00:28.825Z,76.05
2023-11-10T00:02:56.283Z,75.84
2023-11-10T00:05:24.089Z,76.24
2023-11-10T00:07:51.477Z,76.03
2023-11-10T00:10:18.932Z,76.20
2023-11-10T00:12:46.236Z,76.40
2023-11-10T00:15:13.640Z,76.18
2023-11-10T00:17:41.478Z,76.45
2023-11-10T00:20:09.542Z,76.43
2023-11-10T00:22:37.056Z,76.44
2023-11-10T00:25:04.790Z,76.01
2023-11-10T00:27:33.744Z,76.28
2023-11-10T00:30:01.131Z,76.05
2023-11-10T00:32:28.432Z,76.05
2023-11-10T00:34:55.886Z,76.20
2023-11-10T00:37:24.068Z,76.22
2023-11-10T00:39:51.486Z,76.10
2023-11-10T00:42:18.854Z,76.30
2023-11-10T00:44:46.253Z,76.24
2023-11-10T00:47:13.851Z,76.41
2023-11-10T00:49:41.139Z,76.10
2023-11-10T00:52:09.002Z,76.04
2023-11-10T00:54:36.422Z,76.19
2023-11-10T00:57:04.125Z,76.08
2023-11-10T00:59:31.518Z,76.11
2023-11-10T01:01:58.817Z,75.95
2023-11-10T01:04:26.425Z,76.00
2023-11-10T01:06:53.921Z,76.02
2023-11-10T01:09:21.694Z,76.19
2023-11-10T01:11:49.470Z,76.66
2023-11-10T01:14:16.880Z,76.80
2023-11-10T01:16:44.282Z,76.79
2023-11-10T01:19:11.642Z,76.54
2023-11-10T01:21:38.959Z,76.91
2023-11-10T01:24:06.727Z,76.42
2023-11-10T01:26:34.811Z,76.14
2023-11-10T01:29:03.220Z,76.37
2023-11-10T01:31:30.577Z,77.16
2023-11-10T01:33:58.265Z,77.38
2023-11-10T01:36:25.696Z,77.77
2023-11-10T01:38:53.048Z,77.02
2023-11-10T01:41:21.827Z,77.67
2023-11-10T01:43:49.368Z,77.92
2023-11-10T01:46:38.048Z,78.10
2023-11-10T01:49:05.526Z,78.35
2023-11-10T01:51:33.153Z,78.82
2023-11-10T01:54:00.576Z,79.12
2023-11-10T01:56:27.886Z,78.61
2023-11-10T01:58:56.785Z,78.62
2023-11-10T02:01:24.135Z,79.24
2023-11-10T02:03:52.172Z,79.44
2023-11-10T02:06:19.588Z,79.70
2023-11-10T02:08:46.940Z,80.01
2023-11-10T02:11:14.572Z,79.52
2023-11-10T02:13:41.965Z,80.10
2023-11-10T02:16:09.275Z,80.21
2023-11-10T02:18:36.671Z,80.42
2023-11-10T02:21:04.215Z,80.84
2023-11-10T02:23:31.598Z,80.98
2023-11-10T02:25:58.947Z,81.53
2023-11-10T02:28:26.658Z,81.78
2023-11-10T02:30:54.069Z,82.04
2023-11-10T02:33:21.536Z,82.64
2023-11-10T02:35:49.053Z,82.27
2023-11-10T02:38:16.450Z,82.61
2023-11-10T02:40:43.799Z,82.52
2023-11-10T02:43:11.141Z,82.31
2023-11-10T02:45:39.011Z,82.77
2023-11-10T02:48:06.470Z,83.02
2023-11-10T02:50:33.786Z,82.97
2023-11-10T02:53:01.219Z,83.04
2023-11-10T02:55:29.396Z,83.18
2023-11-10T02:57:56.984Z,83.37
2023-11-10T03:00:24.286Z,83.03
2023-11-10T03:02:52.040Z,83.16
2023-11-10T03:05:19.351Z,83.94
2023-11-10T03:07:46.694Z,84.48
2023-11-10T03:10:13.995Z,85.12
2023-11-10T03:12:41.461Z,85.07
2023-11-10T03:15:09.011Z,85.14
2023-11-10T03:17:36.442Z,85.30
2023-11-10T03:20:04.487Z,85.18
2023-11-10T03:22:32.070Z,84.78
2023-11-10T03:24:59.671Z,84.96
2023-11-10T03:27:27.400Z,84.89
2023-11-10T03:29:54.712Z,84.92
2023-11-10T03:32:22.706Z,85.45
2023-11-10T03:34:50.035Z,85.81
2023-11-10T03:37:18.941Z,85.88
2023-11-10T03:39:46.515Z,86.03
2023-11-10T03:42:14.027Z,86.35
2023-11-10T03:44:41.338Z,86.62
2023-11-10T03:47:09.071Z,87.03
2023-11-10T03:49:36.409Z,87.06
2023-11-10T03:52:04.045Z,86.75
2023-11-10T03:54:32.197Z,86.80
2023-11-10T03:56:59.838Z,86.70
2023-11-10T03:59:27.141Z,86.42
2023-11-10T04:01:54.524Z,86.51
2023-11-10T04:04:21.986Z,85.80
2023-11-10T04:06:51.333Z,85.95
2023-11-10T04:09:19.111Z,85.92
2023-11-10T04:11:46.509Z,85.54
2023-11-10T04:14:13.908Z,85.19
2023-11-10T04:16:41.639Z,84.81
2023-11-10T04:19:09.828Z,84.75
2023-11-10T04:21:37.301Z,84.91
2023-11-10T04:24:05.133Z,85.76
2023-11-10T04:26:32.447Z,86.62
2023-11-10T04:29:00.747Z,87.04
2023-11-10T04:31:30.091Z,87.26
2023-11-10T04:33:57.563Z,87.40
2023-11-10T04:36:26.163Z,87.86
2023-11-10T04:38:53.554Z,87.46
2023-11-10T04:41:23.902Z,86.95
2023-11-10T04:43:51.789Z,87.68
2023-11-10T04:46:19.082Z,87.99
2023-11-10T04:48:46.584Z,88.83
2023-11-10T04:51:14.012Z,89.37
2023-11-10T04:53:41.948Z,89.42
2023-11-10T04:56:09.191Z,89.53
2023-11-10T04:58:36.699Z,89.61
2023-11-10T05:01:05.032Z,89.57
2023-11-10T05:03:32.910Z,89.75
2023-11-10T05:06:02.708Z,89.22
2023-11-10T05:08:30.055Z,88.64
2023-11-10T05:10:57.390Z,88.13
2023-11-10T05:13:24.776Z,88.79
2023-11-10T05:15:52.228Z,89.12
2023-11-10T05:20:52.021Z,89.62
2023-11-10T05:23:19.389Z,89.50
2023-11-10T05:25:46.998Z,89.63
2023-11-10T05:28:14.555Z,89.89
2023-11-10T05:30:41.983Z,89.88
2023-11-10T05:33:09.682Z,90.06
2023-11-10T05:35:37.296Z,90.18
2023-11-10T05:38:04.911Z,90.14
2023-11-10T05:40:32.278Z,90.42
2023-11-10T05:42:59.697Z,90.65
2023-11-10T05:45:29.662Z,91.07
2023-11-10T05:47:57.214Z,90.74
2023-11-10T05:50:24.932Z,90.26
2023-11-10T05:52:52.404Z,90.39
2023-11-10T05:55:19.820Z,90.32
2023-11-10T05:57:48.413Z,90.46
2023-11-10T06:00:17.813Z,91.11
2023-11-10T06:02:46.544Z,91.12
2023-11-10T06:05:15.720Z,90.89
2023-11-10T06:07:46.417Z,90.94
2023-11-10T06:10:14.531Z,91.51
2023-11-10T06:12:43.403Z,92.03
2023-11-10T06:15:13.931Z,90.90
2023-11-10T06:17:41.476Z,90.71
2023-11-10T06:20:11.047Z,89.89
2023-11-10T06:22:39.307Z,89.62
2023-11-10T06:25:07.585Z,90.22
2023-11-10T06:27:35.720Z,91.23
2023-11-10T06:30:11.241Z,90.85
2023-11-10T06:32:39.144Z,89.11
2023-11-10T06:35:07.166Z,89.23
2023-11-10T06:37:35.024Z,88.19
2023-11-10T06:40:04.966Z,88.00
2023-11-10T06:42:36.145Z,88.16
2023-11-10T06:45:04.950Z,89.01
2023-11-10T06:47:34.681Z,88.48
2023-11-10T06:50:05.074Z,89.23
2023-11-10T06:52:33.577Z,89.93
2023-11-10T06:55:04.737Z,89.88
2023-11-10T06:57:33.142Z,89.78
2023-11-10T07:00:00.778Z,89.93
2023-11-10T07:02:28.796Z,89.72
2023-11-10T07:04:56.825Z,90.07
2023-11-10T07:07:28.831Z,90.10
2023-11-10T07:10:01.968Z,90.66
2023-11-10T07:12:30.436Z,91.29
2023-11-10T07:14:58.591Z,91.65
2023-11-10T07:17:27.733Z,91.60
2023-11-10T07:19:56.829Z,91.29
2023-11-10T07:22:24.855Z,91.20
2023-11-10T07:24:52.610Z,89.93
2023-11-10T07:27:20.930Z,89.88
2023-11-10T07:29:48.493Z,90.50
2023-11-10T07:32:16.183Z,91.00
2023-11-10T07:34:46.740Z,90.66
2023-11-10T07:37:15.357Z,90.84
2023-11-10T07:39:43.043Z,91.23
2023-11-10T07:42:10.716Z,91.17
2023-11-10T07:44:48.807Z,91.03
2023-11-10T07:47:16.698Z,91.16
2023-11-10T07:49:45.102Z,91.42
2023-11-10T07:52:12.781Z,91.24
2023-11-10T07:54:40.249Z,91.80
2023-11-10T07:57:07.918Z,91.46
2023-11-10T07:59:39.410Z,91.71
2023-11-10T08:02:13.084Z,91.83
2023-11-10T08:04:59.994Z,92.10
2023-11-10T08:07:32.641Z,91.85
2023-11-10T08:10:06.471Z,91.74
2023-11-10T08:12:43.921Z,91.88
2023-11-10T08:15:14.154Z,91.70
2023-11-10T08:17:49.041Z,91.35
2023-11-10T08:20:22.166Z,91.49
2023-11-10T08:22:53.857Z,91.47
2023-11-10T08:25:25.611Z,91.23
2023-11-10T08:28:01.109Z,91.09
2023-11-10T08:30:29.960Z,91.25
2023-11-10T08:32:58.229Z,91.62
2023-11-10T08:35:29.005Z,91.41
2023-11-10T08:37:57.606Z,91.64
2023-11-10T08:40:25.875Z,91.75
2023-11-10T08:42:53.772Z,91.54
2023-11-10T08:45:24.143Z,92.01
2023-11-10T08:47:54.875Z,91.73
2023-11-10T08:50:26.115Z,91.79
2023-11-10T08:52:54.490Z,91.86
2023-11-10T08:55:25.001Z,91.46
2023-11-10T08:57:53.133Z,91.68
2023-11-10T09:00:21.575Z,91.73
2023-11-10T09:02:58.661Z,91.61
2023-11-10T09:05:27.159Z,91.69
2023-11-10T09:07:54.997Z,91.49
2023-11-10T09:10:34.074Z,91.79
2023-11-10T09:13:02.206Z,91.49
2023-11-10T09:15:37.968Z,91.43
2023-11-10T09:18:09.043Z,91.37
2023-11-10T09:20:39.366Z,91.40
2023-11-10T09:23:07.714Z,91.52
2023-11-10T09:25:36.565Z,91.45
2023-11-10T09:28:06.168Z,91.04
2023-11-10T09:30:35.504Z,90.48
2023-11-10T09:33:04.067Z,90.72
2023-11-10T09:35:34.360Z,90.73
2023-11-10T09:38:01.828Z,90.80
2023-11-10T09:40:29.862Z,90.50
2023-11-10T09:43:00.773Z,90.67
2023-11-10T09:45:28.500Z,90.71
2023-11-10T09:47:56.491Z,90.86
2023-11-10T09:50:24.313Z,90.39
2023-11-10T09:52:52.249Z,90.89
2023-11-10T09:55:21.442Z,90.53
2023-11-10T09:57:52.375Z,90.93
2023-11-10T10:00:22.190Z,90.41
2023-11-10T10:02:50.955Z,90.57
2023-11-10T10:05:20.224Z,89.94
2023-11-10T10:07:50.702Z,90.10
2023-11-10T10:10:19.222Z,90.56
2023-11-10T10:12:46.843Z,89.86
2023-11-10T10:15:14.519Z,89.75
2023-11-10T10:17:42.492Z,89.52
2023-11-10T10:20:15.575Z,89.55
2023-11-10T10:22:47.359Z,89.63
2023-11-10T10:25:16.503Z,89.91
2023-11-10T10:27:45.301Z,89.91
2023-11-10T10:30:14.096Z,90.21
2023-11-10T10:32:42.390Z,90.43
2023-11-10T10:35:10.355Z,90.27
2023-11-10T10:37:40.317Z,89.77
2023-11-10T10:40:12.763Z,89.41
2023-11-10T10:42:43.115Z,89.20
2023-11-10T10:45:14.411Z,88.94
2023-11-10T10:47:42.494Z,88.73
2023-11-10T10:50:11.743Z,89.15
2023-11-10T10:52:39.907Z,89.28
2023-11-10T10:55:09.183Z,89.16
2023-11-10T10:57:39.189Z,89.07
2023-11-10T11:00:07.502Z,88.70
2023-11-10T11:02:46.154Z,89.33
2023-11-10T11:05:19.976Z,89.66
2023-11-10T11:07:56.270Z,89.40
2023-11-10T11:10:51.453Z,89.68
2023-11-10T11:13:42.809Z,89.31
2023-11-10T11:16:37.177Z,89.50
2023-11-10T11:19:29.808Z,89.73
2023-11-10T11:21:58.071Z,89.77
2023-11-10T11:24:26.056Z,89.65
2023-11-10T11:27:00.915Z,89.53
2023-11-10T11:29:41.108Z,89.97
2023-11-10T11:32:13.975Z,90.54
2023-11-10T11:34:51.325Z,90.04
2023-11-10T11:37:19.054Z,90.63
2023-11-10T11:39:47.995Z,90.68
2023-11-10T11:42:17.762Z,90.85
2023-11-10T11:44:46.993Z,91.09
2023-11-10T11:47:14.474Z,90.71
2023-11-10T11:49:42.129Z,90.81
2023-11-10T11:52:11.270Z,90.91
2023-11-10T11:54:38.996Z,91.10
2023-11-10T11:57:06.574Z,91.20
2023-11-10T11:59:34.202Z,91.62
2023-11-10T12:02:04.484Z,91.74
2023-11-10T12:04:35.057Z,91.79
2023-11-10T12:07:03.843Z,91.29
2023-11-10T12:09:37.513Z,91.34
2023-11-10T12:12:05.956Z,91.40
2023-11-10T12:14:37.541Z,91.18
2023-11-10T12:17:11.713Z,91.49
2023-11-10T12:19:39.804Z,91.41
2023-11-10T12:22:07.574Z,91.52
2023-11-10T12:24:35.152Z,91.36
2023-11-10T12:27:02.528Z,91.46
2023-11-10T12:29:32.230Z,91.90
2023-11-10T12:32:02.902Z,91.72
2023-11-10T12:34:30.829Z,91.21
2023-11-10T12:37:03.650Z,91.71
2023-11-10T12:39:31.596Z,91.91
2023-11-10T12:42:02.141Z,91.87
2023-11-10T12:44:29.910Z,92.00
2023-11-10T12:46:58.693Z,91.55
2023-11-10T12:49:28.564Z,91.85
2023-11-10T12:52:00.409Z,91.97
2023-11-10T12:54:29.741Z,91.95
2023-11-10T12:57:00.686Z,91.87
2023-11-10T12:59:32.498Z,92.06
2023-11-10T13:02:00.949Z,91.85
2023-11-10T13:04:28.656Z,91.82
2023-11-10T13:06:57.239Z,91.60
2023-11-10T13:09:27.907Z,91.47
2023-11-10T13:11:55.453Z,91.98
2023-11-10T13:14:23.156Z,92.54
2023-11-10T13:16:50.748Z,92.66
2023-11-10T13:19:18.224Z,92.53
2023-11-10T13:21:46.149Z,92.66
2023-11-10T13:24:14.022Z,92.85
2023-11-10T13:26:42.616Z,92.89
2023-11-10T13:29:10.737Z,92.77
2023-11-10T13:31:38.462Z,92.66
2023-11-10T13:34:14.020Z,92.65
2023-11-10T13:36:42.489Z,92.54
2023-11-10T13:39:13.143Z,91.66
2023-11-10T13:41:46.468Z,91.56
2023-11-10T13:44:17.495Z,91.38
2023-11-10T13:46:45.115Z,91.60
2023-11-10T13:49:13.549Z,91.73
2023-11-10T13:51:41.200Z,91.71
2023-11-10T13:54:08.616Z,91.48
2023-11-10T13:56:36.387Z,91.42
2023-11-10T13:59:07.664Z,91.83
2023-11-10T14:01:35.369Z,91.81
2023-11-10T14:04:03.237Z,91.49
2023-11-10T14:06:31.728Z,91.24
2023-11-10T14:08:59.556Z,90.95
2023-11-10T14:11:27.359Z,90.78
2023-11-10T14:13:57.266Z,90.89
2023-11-10T14:16:25.021Z,91.22
2023-11-10T14:18:52.440Z,91.63
2023-11-10T14:21:23.389Z,91.25
2023-11-10T14:23:51.005Z,90.99
2023-11-10T14:26:18.533Z,91.17
2023-11-10T14:28:46.037Z,91.34
2023-11-10T14:31:14.781Z,91.32
2023-11-10T14:33:42.650Z,91.30
2023-11-10T14:36:12.797Z,91.85
2023-11-10T14:38:46.698Z,92.09
2023-11-10T14:41:18.255Z,92.10
2023-11-10T14:43:52.021Z,91.97
2023-11-10T14:46:20.072Z,91.67
2023-11-10T14:48:48.594Z,91.61
2023-11-10T14:51:31.841Z,91.13
2023-11-10T14:53:59.508Z,91.04
2023-11-10T14:56:26.972Z,90.95
2023-11-10T14:58:54.396Z,90.50
2023-11-10T15:01:22.652Z,90.51
2023-11-10T15:03:50.887Z,90.62
2023-11-10T15:06:21.316Z,90.56
2023-11-10T15:08:49.196Z,90.37
2023-11-10T15:11:16.893Z,89.66
2023-11-10T15:13:44.356Z,89.92
2023-11-10T15:16:12.076Z,90.43
2023-11-10T15:18:40.238Z,90.54
2023-11-10T15:21:07.881Z,90.62
2023-11-10T15:23:36.853Z,90.80
2023-11-10T15:26:04.576Z,90.46
2023-11-10T15:28:36.510Z,90.67
2023-11-10T15:31:07.551Z,90.54
2023-11-10T15:33:36.185Z,90.72
2023-11-10T15:36:04.610Z,90.79
2023-11-10T15:38:32.439Z,90.49
2023-11-10T15:41:02.674Z,90.38
2023-11-10T15:43:31.389Z,90.36
2023-11-10T15:46:02.138Z,90.47
2023-11-10T15:48:37.282Z,91.22
2023-11-10T15:51:11.339Z,91.33
2023-11-10T15:53:38.765Z,91.47
2023-11-10T15:56:06.250Z,91.09
2023-11-10T15:58:33.785Z,91.70
2023-11-10T16:01:01.311Z,91.40
2023-11-10T16:03:28.958Z,91.37
2023-11-10T16:05:56.419Z,91.32
2023-11-10T16:08:23.925Z,91.30
2023-11-10T16:10:51.292Z,91.51
2023-11-10T16:13:18.844Z,91.77
2023-11-10T16:15:46.312Z,92.20
2023-11-10T16:18:13.770Z,92.55
2023-11-10T16:20:41.187Z,92.82
2023-11-10T16:23:08.894Z,92.80
2023-11-10T16:25:36.270Z,92.64
2023-11-10T16:28:03.925Z,92.64
2023-11-10T16:30:32.038Z,92.79
2023-11-10T16:33:00.802Z,92.86
2023-11-10T16:35:28.880Z,93.30
2023-11-10T16:37:56.256Z,93.40
2023-11-10T16:40:23.741Z,93.44
2023-11-10T16:42:51.989Z,93.78
2023-11-10T16:45:19.419Z,93.96
2023-11-10T16:47:48.163Z,93.76
2023-11-10T16:50:16.009Z,93.52
2023-11-10T16:52:43.500Z,93.59
2023-11-10T16:55:11.224Z,93.41
2023-11-10T16:57:39.118Z,93.15
2023-11-10T17:00:14.539Z,93.32
2023-11-10T17:02:46.037Z,92.53
2023-11-10T17:05:16.877Z,92.26
2023-11-10T17:07:44.455Z,92.35
2023-11-10T17:10:13.373Z,92.32
2023-11-10T17:12:41.856Z,92.31
2023-11-10T17:15:11.776Z,92.33
2023-11-10T17:17:44.784Z,92.58
2023-11-10T17:20:13.294Z,92.54
2023-11-10T17:22:40.824Z,92.71
2023-11-10T17:25:09.234Z,92.66
2023-11-10T17:27:36.802Z,92.16
2023-11-10T17:30:04.541Z,91.93
2023-11-10T17:32:32.104Z,91.75
2023-11-10T17:34:59.488Z,92.19
2023-11-10T17:37:26.981Z,91.79
2023-11-10T17:39:54.671Z,90.95
2023-11-10T17:42:22.038Z,91.16
2023-11-10T17:44:50.096Z,91.49
2023-11-10T17:47:17.527Z,91.60
2023-11-10T17:49:44.938Z,91.34
2023-11-10T17:52:12.649Z,91.34
2023-11-10T17:54:40.087Z,91.75
2023-11-10T17:57:09.894Z,92.56
2023-11-10T17:59:37.333Z,92.29
2023-11-10T18:02:05.003Z,92.62
2023-11-10T18:04:33.602Z,93.00
2023-11-10T18:07:01.197Z,92.81
2023-11-10T18:09:28.466Z,92.53
2023-11-10T18:11:55.980Z,92.46
2023-11-10T18:14:23.399Z,92.55
2023-11-10T18:16:51.358Z,92.71
2023-11-10T18:19:18.769Z,92.84
2023-11-10T18:21:46.698Z,93.22
2023-11-10T18:24:14.699Z,92.93
2023-11-10T18:26:44.959Z,92.94
2023-11-10T18:29:12.362Z,93.21
2023-11-10T18:31:39.800Z,93.47
2023-11-10T18:34:08.014Z,93.52
2023-11-10T18:36:35.596Z,93.50
2023-11-10T18:39:03.630Z,93.44
2023-11-10T18:41:31.231Z,92.09
2023-11-10T18:43:58.710Z,91.78
2023-11-10T18:46:26.183Z,91.95
2023-11-10T18:48:53.644Z,92.46
2023-11-10T18:51:21.096Z,92.63
2023-11-10T18:53:48.414Z,92.80
2023-11-10T18:56:15.790Z,93.06
2023-11-10T18:58:43.228Z,93.00
2023-11-10T19:01:10.748Z,92.70
2023-11-10T19:03:39.098Z,91.79
2023-11-10T19:06:08.000Z,91.35
2023-11-10T19:08:37.422Z,91.66
2023-11-10T19:11:05.877Z,91.51
2023-11-10T19:13:35.966Z,91.41
2023-11-10T19:16:03.476Z,91.07
2023-11-10T19:18:30.849Z,90.95
2023-11-10T19:20:58.174Z,91.19
2023-11-10T19:23:25.475Z,90.96
2023-11-10T19:25:52.827Z,91.05
2023-11-10T19:28:25.158Z,91.05
2023-11-10T19:30:53.142Z,91.30
2023-11-10T19:33:20.632Z,91.44
2023-11-10T19:35:48.086Z,91.22
2023-11-10T19:38:15.385Z,91.07
2023-11-10T19:40:42.898Z,90.67
2023-11-10T19:43:10.974Z,90.26
2023-11-10T19:45:38.548Z,90.20
2023-11-10T19:48:05.883Z,90.00
2023-11-10T19:50:33.217Z,89.54
2023-11-10T19:53:02.438Z,89.79
2023-11-10T19:55:33.776Z,90.26
2023-11-10T19:58:01.139Z,90.26
2023-11-10T20:02:58.902Z,90.29
2023-11-10T20:05:26.361Z,90.62
2023-11-10T20:07:56.083Z,91.39
2023-11-10T20:10:24.973Z,91.29
2023-11-10T20:12:52.301Z,91.54
2023-11-10T20:15:19.742Z,91.71
2023-11-10T20:17:47.093Z,91.75
2023-11-10T20:20:15.829Z,91.59
2023-11-10T20:22:43.220Z,91.33
2023-11-10T20:25:10.728Z,91.03
2023-11-10T20:27:38.112Z,90.50
2023-11-10T20:30:06.341Z,90.18
2023-11-10T20:32:33.781Z,90.36
2023-11-10T20:35:01.296Z,90.72
2023-11-10T20:37:30.593Z,91.18
2023-11-10T20:39:59.642Z,91.26
2023-11-10T20:42:27.037Z,91.62
2023-11-10T20:44:54.497Z,91.53
2023-11-10T20:47:21.752Z,90.84
2023-11-10T20:49:49.079Z,90.96
2023-11-10T20:52:16.773Z,91.43
2023-11-10T20:54:45.151Z,91.29
2023-11-10T20:57:12.646Z,91.57
2023-11-10T20:59:40.098Z,91.96
2023-11-10T21:02:07.415Z,92.43
2023-11-10T21:04:34.872Z,92.72
2023-11-10T21:07:02.392Z,92.82
2023-11-10T21:09:29.661Z,93.06
2023-11-10T21:11:57.721Z,92.99
2023-11-10T21:14:25.074Z,92.16
2023-11-10T21:16:52.387Z,92.17
2023-11-10T21:19:19.805Z,91.84
2023-11-10T21:21:48.964Z,91.94
2023-11-10T21:24:16.578Z,92.29
2023-11-10T21:26:48.685Z,92.19
2023-11-10T21:29:16.235Z,91.69
2023-11-10T21:31:43.526Z,91.99
2023-11-10T21:34:10.983Z,91.58
2023-11-10T21:36:39.037Z,90.44
2023-11-10T21:39:12.296Z,89.89
2023-11-10T21:41:39.958Z,89.82
2023-11-10T21:44:10.945Z,88.69
2023-11-10T21:46:38.689Z,89.23
2023-11-10T21:49:06.246Z,89.46
2023-11-10T21:51:33.629Z,89.77
2023-11-10T21:54:02.999Z,90.29
2023-11-10T21:56:30.401Z,90.77
2023-11-10T21:58:57.878Z,91.09
2023-11-10T22:01:25.675Z,90.92
2023-11-10T22:03:53.295Z,90.95
2023-11-10T22:06:20.837Z,90.77
2023-11-10T22:08:48.357Z,90.41
2023-11-10T22:11:15.761Z,89.84
2023-11-10T22:13:43.472Z,90.03
2023-11-10T22:16:10.780Z,89.85
2023-11-10T22:18:38.888Z,90.05
2023-11-10T22:21:06.336Z,90.22
2023-11-10T22:23:33.794Z,89.31
2023-11-10T22:26:02.851Z,89.61
2023-11-10T22:28:30.716Z,90.13
2023-11-10T22:30:58.528Z,90.35
2023-11-10T22:33:26.037Z,89.41
2023-11-10T22:35:53.350Z,89.02
2023-11-10T22:38:20.856Z,89.53
2023-11-10T22:40:51.695Z,90.33
2023-11-10T22:43:19.454Z,90.64
2023-11-10T22:45:46.739Z,89.41
2023-11-10T22:48:14.133Z,88.78
2023-11-10T22:50:41.462Z,88.88
2023-11-10T22:53:09.126Z,88.59
2023-11-10T22:55:36.384Z,89.18
2023-11-10T22:58:03.957Z,88.74
2023-11-10T23:00:34.954Z,88.20
2023-11-10T23:03:05.517Z,87.98
2023-11-10T23:05:33.285Z,88.32
2023-11-10T23:08:00.625Z,89.28
2023-11-10T23:10:28.170Z,89.14
2023-11-10T23:12:56.738Z,88.86
2023-11-10T23:15:24.121Z,88.94
2023-11-10T23:17:53.949Z,89.79
2023-11-10T23:20:26.991Z,89.89
2023-11-10T23:23:00.581Z,90.11
2023-11-10T23:25:28.030Z,90.09
2023-11-10T23:27:55.305Z,88.99
2023-11-10T23:30:23.052Z,89.20
2023-11-10T23:32:52.531Z,89.06
2023-11-10T23:35:20.125Z,89.42
2023-11-10T23:37:49.314Z,88.93
2023-11-10T23:40:16.739Z,89.10
2023-11-10T23:42:44.276Z,88.63
2023-11-10T23:45:11.735Z,88.68
2023-11-10T23:47:39.182Z,88.94
2023-11-10T23:50:08.061Z,89.17
2023-11-10T23:52:36.082Z,88.70
2023-11-10T23:55:04.205Z,88.86
2023-11-10T23:57:32.252Z,88.79
2023-11-10T23:59:59.778Z,89.04
